createdAt,value
2022-10-03T00:00:31.653Z,42.05
2022-10-03T00:03:21.168Z,41.27
2022-10-03T00:06:17.363Z,41.48
2022-10-03T00:10:18.400Z,41.11
2022-10-03T00:12:52.171Z,41.02
2022-10-03T00:15:25.257Z,40.65
2022-10-03T00:18:49.607Z,40.67
2022-10-03T00:24:10.251Z,40.43
2022-10-03T00:27:02.793Z,40.09
2022-10-03T00:28:10.659Z,39.94
2022-10-03T00:31:10.480Z,40.65
2022-10-03T00:32:43.100Z,40.64
2022-10-03T00:35:26.441Z,40.92
2022-10-03T00:38:26.184Z,40.95
2022-10-03T00:41:11.422Z,39.51
2022-10-03T00:44:31.485Z,40.18
2022-10-03T00:50:29.030Z,41.27
2022-10-03T00:51:52.569Z,40.87
2022-10-03T00:55:00.001Z,40.78
2022-10-03T00:58:02.620Z,39.06
2022-10-03T01:00:34.997Z,40.99
2022-10-03T01:09:11.193Z,42.04
2022-10-03T01:10:40.707Z,42.67
2022-10-03T01:13:26.642Z,41.55
2022-10-03T01:14:48.231Z,42.59
2022-10-03T01:17:27.645Z,41.14
2022-10-03T01:20:11.151Z,42.07
2022-10-03T01:27:18.184Z,42.03
2022-10-03T01:28:28.421Z,41.25
2022-10-03T01:50:23.190Z,40.60
2022-10-03T01:51:30.142Z,40.73
2022-10-03T01:52:49.208Z,40.90
2022-10-03T01:55:35.097Z,39.81
2022-10-03T01:59:45.057Z,42.27
2022-10-03T02:02:43.626Z,39.95
2022-10-03T02:11:03.165Z,40.33
2022-10-03T02:13:43.464Z,39.35
2022-10-03T02:16:32.873Z,40.50
2022-10-03T02:23:31.853Z,40.90
2022-10-03T02:26:18.485Z,41.02
2022-10-03T02:27:52.800Z,40.35
2022-10-03T02:30:51.686Z,41.26
2022-10-03T02:34:02.468Z,40.56
2022-10-03T02:37:08.718Z,40.92
2022-10-03T02:38:37.187Z,39.41
2022-10-03T02:41:38.971Z,39.17
2022-10-03T02:44:38.751Z,40.70
2022-10-03T02:47:24.981Z,40.47
2022-10-03T02:48:48.793Z,40.02
2022-10-03T02:51:33.731Z,38.75
2022-10-03T02:53:10.950Z,40.40
2022-10-03T02:56:21.929Z,40.18
2022-10-03T02:57:35.082Z,39.96
2022-10-03T03:00:58.573Z,39.92
2022-10-03T03:04:08.069Z,39.88
2022-10-03T03:07:21.188Z,37.92
2022-10-03T03:08:37.101Z,39.42
2022-10-03T03:10:03.571Z,40.41
2022-10-03T03:12:48.317Z,39.84
2022-10-03T03:16:03.385Z,40.21
2022-10-03T03:18:45.077Z,39.50
2022-10-03T03:20:00.865Z,39.32
2022-10-03T03:22:59.135Z,40.53
2022-10-03T03:24:23.461Z,38.99
2022-10-03T03:27:18.257Z,39.10
2022-10-03T03:31:24.104Z,40.58
2022-10-03T03:32:39.451Z,40.19
2022-10-03T03:35:45.479Z,40.17
2022-10-03T03:39:35.486Z,41.02
2022-10-03T03:42:43.409Z,41.56
2022-10-03T03:45:23.271Z,41.25
2022-10-03T03:48:14.412Z,40.44
2022-10-03T03:51:00.906Z,40.86
2022-10-03T03:54:08.336Z,40.18
2022-10-03T03:57:08.106Z,39.05
2022-10-03T03:58:38.546Z,40.15
2022-10-03T04:01:09.745Z,40.69
2022-10-03T04:12:55.710Z,40.89
2022-10-03T04:14:09.422Z,40.73
2022-10-03T04:18:22.209Z,39.63
2022-10-03T04:20:05.072Z,40.49
2022-10-03T04:22:38.961Z,44.30
2022-10-03T04:25:19.117Z,40.45
2022-10-03T04:28:04.675Z,39.34
2022-10-03T04:29:28.798Z,41.17
2022-10-03T04:32:39.403Z,41.83
2022-10-03T04:36:32.081Z,41.27
2022-10-03T04:39:11.683Z,41.70
2022-10-03T04:42:05.220Z,41.44
2022-10-03T04:43:13.262Z,41.19
2022-10-03T04:50:30.056Z,40.98
2022-10-03T04:53:06.227Z,41.37
2022-10-03T04:55:43.602Z,41.11
2022-10-03T04:57:13.254Z,40.05
2022-10-03T05:01:59.771Z,39.83
2022-10-03T05:04:28.029Z,39.67
2022-10-03T05:08:29.611Z,40.00
2022-10-03T05:10:57.403Z,39.96
2022-10-03T05:15:20.547Z,41.07
2022-10-03T05:17:59.365Z,40.15
2022-10-03T05:21:06.429Z,40.81
2022-10-03T05:23:43.201Z,40.69
2022-10-03T05:26:45.021Z,41.00
2022-10-03T05:29:19.880Z,40.32
2022-10-03T05:32:07.642Z,41.14
2022-10-03T05:33:30.064Z,40.89
2022-10-03T05:34:44.244Z,40.60
2022-10-03T05:37:48.561Z,41.04
2022-10-03T05:40:19.034Z,40.75
2022-10-03T05:41:33.957Z,40.67
2022-10-03T05:44:08.096Z,38.70
2022-10-03T05:48:48.269Z,40.88
2022-10-03T05:51:39.214Z,39.74
2022-10-03T05:54:34.637Z,39.51
2022-10-03T05:57:18.234Z,39.49
2022-10-03T06:01:42.668Z,40.10
2022-10-03T06:06:21.060Z,39.19
2022-10-03T06:09:07.777Z,38.69
2022-10-03T06:12:00.075Z,41.58
2022-10-03T06:14:37.268Z,39.76
2022-10-03T06:17:19.593Z,38.87
2022-10-03T06:20:18.626Z,40.29
2022-10-03T06:21:54.874Z,38.95
2022-10-03T06:23:27.764Z,41.69
2022-10-03T11:46:22.683Z,76.55
2022-10-03T11:47:35.432Z,78.66
2022-10-03T11:50:18.563Z,74.06
2022-10-03T11:52:52.415Z,72.92
2022-10-03T11:55:35.274Z,66.35
2022-10-03T11:58:19.349Z,67.18
2022-10-03T12:01:15.343Z,59.09
2022-10-03T12:04:30.347Z,65.51
2022-10-03T12:07:01.047Z,59.58
2022-10-03T12:09:57.330Z,54.23
2022-10-03T12:12:47.760Z,53.61
2022-10-03T12:15:42.018Z,52.66
2022-10-03T12:20:25.057Z,48.31
2022-10-03T12:21:35.558Z,46.83
2022-10-03T12:24:14.978Z,46.54
2022-10-03T12:26:58.208Z,45.83
2022-10-03T12:28:17.650Z,47.04
2022-10-03T12:31:18.245Z,46.85
2022-10-03T12:34:02.622Z,48.37
2022-10-03T12:38:15.277Z,46.60
2022-10-03T12:40:53.828Z,47.47
2022-10-03T12:42:24.153Z,50.27
2022-10-03T12:43:34.330Z,48.94
2022-10-03T12:47:56.787Z,47.68
2022-10-03T12:51:06.553Z,47.69
2022-10-03T12:54:00.677Z,47.12
2022-10-03T12:58:28.705Z,47.12
2022-10-03T13:01:40.589Z,47.91
2022-10-03T13:04:39.666Z,48.35
2022-10-03T13:07:30.196Z,48.94
2022-10-03T13:10:34.340Z,62.54
2022-10-03T13:13:08.372Z,60.32
2022-10-03T13:15:46.444Z,57.63
2022-10-03T13:17:05.642Z,54.71
2022-10-03T13:19:57.775Z,56.13
2022-10-03T13:22:56.785Z,50.43
2022-10-03T13:25:46.439Z,48.98
2022-10-03T13:28:53.074Z,47.29
2022-10-03T13:31:20.876Z,47.35
2022-10-03T13:32:43.815Z,48.07
2022-10-03T13:35:25.402Z,46.29
2022-10-03T13:38:14.591Z,47.50
2022-10-03T13:40:39.955Z,48.21
2022-10-03T13:42:05.128Z,48.26
2022-10-03T13:45:53.794Z,50.91
2022-10-03T13:48:23.831Z,54.87
2022-10-03T13:50:52.436Z,54.87
2022-10-03T13:53:32.363Z,52.63
2022-10-03T13:59:39.865Z,50.88
2022-10-03T14:02:35.912Z,49.40
2022-10-03T14:05:53.773Z,49.22
2022-10-03T14:11:21.526Z,48.80
2022-10-03T14:14:13.387Z,49.60
2022-10-03T14:18:01.628Z,47.64
2022-10-03T14:19:20.498Z,47.69
2022-10-03T14:22:09.122Z,47.72
2022-10-03T14:24:54.283Z,47.83
2022-10-03T14:28:01.631Z,45.66
2022-10-03T14:31:06.830Z,46.14
2022-10-03T14:35:28.586Z,45.26
2022-10-03T14:37:59.528Z,45.07
2022-10-03T14:40:49.919Z,44.00
2022-10-03T14:43:53.028Z,43.45
2022-10-03T14:46:13.534Z,43.50
2022-10-03T14:47:18.639Z,44.46
2022-10-03T14:51:16.520Z,43.99
2022-10-03T14:52:44.721Z,44.92
2022-10-03T14:55:25.345Z,44.12
2022-10-03T15:00:45.500Z,44.34
2022-10-03T15:03:18.735Z,44.15
2022-10-03T15:04:35.252Z,44.44
2022-10-03T15:06:55.340Z,43.94
2022-10-03T15:09:13.603Z,44.65
2022-10-03T15:10:26.697Z,44.53
2022-10-03T15:12:48.389Z,44.81
2022-10-03T15:16:25.601Z,45.17
2022-10-03T15:18:47.540Z,44.81
2022-10-03T15:21:14.648Z,45.39
2022-10-03T15:23:44.397Z,45.33
2022-10-03T15:26:00.847Z,44.98
2022-10-03T15:28:39.813Z,44.80
2022-10-03T15:29:44.087Z,45.03
2022-10-03T15:30:50.434Z,45.27
2022-10-03T15:33:31.063Z,44.89
2022-10-03T15:34:40.835Z,44.51
2022-10-03T15:37:18.313Z,44.82
2022-10-03T15:39:39.618Z,44.63
2022-10-03T15:44:57.081Z,44.96
2022-10-03T15:47:18.769Z,44.37
2022-10-03T15:48:23.168Z,44.59
2022-10-03T15:49:45.443Z,44.84
2022-10-03T15:50:50.151Z,44.92
2022-10-03T15:53:36.101Z,45.05
2022-10-03T15:55:51.304Z,45.15
2022-10-03T15:57:34.625Z,44.98
2022-10-03T16:00:02.814Z,45.61
2022-10-03T16:02:34.676Z,45.07
2022-10-03T16:03:44.951Z,44.94
2022-10-03T16:06:12.824Z,45.38
2022-10-03T16:07:42.765Z,44.95
2022-10-03T16:10:22.969Z,45.76
2022-10-03T16:13:00.483Z,45.88
2022-10-03T16:16:53.718Z,45.97
2022-10-03T16:19:43.192Z,45.41
2022-10-03T16:22:17.435Z,45.43
2022-10-03T16:23:24.545Z,45.05
2022-10-03T16:25:58.086Z,46.21
2022-10-03T16:27:26.400Z,45.80
2022-10-03T16:30:12.872Z,46.13
2022-10-03T16:31:28.761Z,46.00
2022-10-03T16:32:36.206Z,46.30
2022-10-03T16:35:06.067Z,46.33
2022-10-03T16:36:12.653Z,46.54
2022-10-03T16:38:40.486Z,46.20
2022-10-03T16:42:17.348Z,46.62
2022-10-03T16:43:21.525Z,46.46
2022-10-03T16:45:46.409Z,46.78
2022-10-03T16:48:07.169Z,46.45
2022-10-03T16:50:42.507Z,47.69
2022-10-03T16:53:10.612Z,47.29
2022-10-03T16:55:36.441Z,47.16
2022-10-03T16:58:12.276Z,47.61
2022-10-03T16:59:21.102Z,47.54
2022-10-03T17:00:43.828Z,47.41
2022-10-03T17:01:50.965Z,47.17
2022-10-03T17:02:56.480Z,46.95
2022-10-03T17:05:40.101Z,47.65
2022-10-03T17:07:59.853Z,48.90
2022-10-03T17:09:06.807Z,49.05
2022-10-03T17:10:22.734Z,48.46
2022-10-03T17:12:42.228Z,48.07
2022-10-03T17:15:06.263Z,48.37
2022-10-03T17:18:14.764Z,49.27
2022-10-03T17:19:27.704Z,49.54
2022-10-03T17:25:00.403Z,53.96
2022-10-03T17:27:38.453Z,55.48
2022-10-03T17:31:33.534Z,56.62
2022-10-03T17:32:40.295Z,57.50
2022-10-03T17:37:00.616Z,56.55
2022-10-03T17:38:47.939Z,56.24
2022-10-03T17:41:14.115Z,55.49
2022-10-03T17:42:29.892Z,55.49
2022-10-03T17:46:21.587Z,55.80
2022-10-03T17:47:48.854Z,55.63
2022-10-03T17:50:22.898Z,55.73
2022-10-03T17:51:29.927Z,55.57
2022-10-03T17:53:53.156Z,55.43
2022-10-03T17:55:05.882Z,55.66
2022-10-03T17:56:15.378Z,55.50
2022-10-03T17:57:34.452Z,55.10
2022-10-03T17:59:59.279Z,55.93
2022-10-03T18:02:30.925Z,55.08
2022-10-03T18:05:13.595Z,55.05
2022-10-03T18:06:40.997Z,54.87
2022-10-03T18:08:58.817Z,54.89
2022-10-03T18:10:02.976Z,54.63
2022-10-03T18:11:08.137Z,54.45
2022-10-03T18:13:46.534Z,54.59
2022-10-03T18:17:51.393Z,55.04
2022-10-03T18:20:50.173Z,55.68
2022-10-03T18:22:02.614Z,56.58
2022-10-03T18:24:36.788Z,57.64
2022-10-03T18:27:22.401Z,59.40
2022-10-03T18:32:35.696Z,61.61
2022-10-03T18:33:58.212Z,62.05
2022-10-03T18:36:44.638Z,62.89
2022-10-03T18:38:03.854Z,62.25
2022-10-03T18:41:45.602Z,62.25
2022-10-03T18:44:03.731Z,63.08
2022-10-03T18:46:25.433Z,63.58
2022-10-03T18:51:46.480Z,85.41
2022-10-03T18:55:38.936Z,32.06
2022-10-03T18:58:02.787Z,24.46
2022-10-03T19:00:27.702Z,21.34
2022-10-03T19:04:10.644Z,21.14
2022-10-03T19:06:38.070Z,21.94
2022-10-03T19:10:48.577Z,21.98
2022-10-03T19:13:53.939Z,21.70
2022-10-03T19:17:54.571Z,23.62
2022-10-03T19:20:43.611Z,20.79
2022-10-03T19:21:48.408Z,22.15
2022-10-03T19:24:46.175Z,21.62
2022-10-03T19:26:52.574Z,20.12
2022-10-03T19:30:27.245Z,22.64
2022-10-03T19:31:46.107Z,22.58
2022-10-03T19:33:01.752Z,22.43
2022-10-03T19:35:22.398Z,24.06
2022-10-03T19:37:45.798Z,23.64
2022-10-03T19:41:34.902Z,24.33
2022-10-03T19:44:09.322Z,23.88
2022-10-03T19:45:14.325Z,24.10
2022-10-03T19:46:22.004Z,25.04
2022-10-03T19:47:35.139Z,24.83
2022-10-03T19:51:25.691Z,25.40
2022-10-03T19:52:31.961Z,27.34
2022-10-03T19:55:02.428Z,27.27
2022-10-03T19:57:24.115Z,29.13
2022-10-03T19:58:28.921Z,28.32
2022-10-03T20:00:54.587Z,28.45
2022-10-03T20:03:24.911Z,27.36
2022-10-03T20:06:20.453Z,27.80
2022-10-03T20:07:45.340Z,27.04
2022-10-03T20:10:28.301Z,26.36
2022-10-03T20:12:56.197Z,26.00
2022-10-03T20:15:21.616Z,26.68
2022-10-03T20:16:28.807Z,28.20
2022-10-03T20:17:33.228Z,26.58
2022-10-03T20:18:36.758Z,27.02
2022-10-03T20:21:12.012Z,27.84
2022-10-03T20:23:30.097Z,25.49
2022-10-03T20:24:38.446Z,27.88
2022-10-03T20:27:21.677Z,27.55
2022-10-03T20:28:37.654Z,27.77
2022-10-03T20:30:58.949Z,26.79
2022-10-03T20:33:27.981Z,27.88
2022-10-03T20:35:55.720Z,26.86
2022-10-03T20:37:37.023Z,27.72
2022-10-03T20:40:35.162Z,26.49
2022-10-03T20:43:31.426Z,28.13
2022-10-03T20:46:21.434Z,26.19
2022-10-03T20:47:45.229Z,28.00
2022-10-03T20:50:33.715Z,28.06
2022-10-03T20:54:17.243Z,26.02
2022-10-03T20:56:51.650Z,25.87
2022-10-03T20:58:23.478Z,26.95
2022-10-03T21:01:07.998Z,25.74
2022-10-03T21:05:00.862Z,27.75
2022-10-03T21:07:31.886Z,27.84
2022-10-03T21:10:10.133Z,25.69
2022-10-03T21:11:22.810Z,26.30
2022-10-03T21:14:05.614Z,28.03
2022-10-03T21:16:37.959Z,25.89
2022-10-03T21:20:15.121Z,27.48
2022-10-03T21:22:41.249Z,25.10
2022-10-03T21:25:32.661Z,32.69
2022-10-03T21:27:56.616Z,32.76
2022-10-03T21:31:07.901Z,34.05
2022-10-03T21:33:32.670Z,31.23
2022-10-03T21:36:46.055Z,32.08
2022-10-03T21:39:38.218Z,33.08
2022-10-03T21:42:32.272Z,32.35
2022-10-03T21:45:28.763Z,33.70
2022-10-03T21:46:44.511Z,31.66
2022-10-03T21:49:30.152Z,34.08
2022-10-03T21:52:01.695Z,34.04
2022-10-03T21:53:28.335Z,35.19
2022-10-03T21:54:35.326Z,33.29
2022-10-03T21:57:14.852Z,33.60
2022-10-03T22:00:17.370Z,32.31
2022-10-03T22:01:36.745Z,34.58
2022-10-03T22:04:07.711Z,33.83
2022-10-03T22:05:34.540Z,34.22
2022-10-03T22:07:56.100Z,32.73
2022-10-03T22:11:47.598Z,35.57
2022-10-03T22:13:00.556Z,35.87
2022-10-03T22:15:42.983Z,35.51
2022-10-03T22:18:22.244Z,35.24
2022-10-03T22:21:11.079Z,36.69
2022-10-03T22:22:21.016Z,35.18
2022-10-03T22:23:33.987Z,34.66
2022-10-03T22:26:30.035Z,36.62
2022-10-03T22:27:42.466Z,35.84
2022-10-03T22:29:07.657Z,35.62
2022-10-03T22:31:29.616Z,35.96
2022-10-03T22:33:02.620Z,36.58
2022-10-03T22:34:43.188Z,34.95
2022-10-03T22:37:01.857Z,36.37
2022-10-03T22:38:07.248Z,35.98
2022-10-03T22:40:30.126Z,36.76
2022-10-03T22:41:34.337Z,35.93
2022-10-03T22:42:41.564Z,37.45
2022-10-03T22:44:58.358Z,35.92
2022-10-03T22:46:06.623Z,36.03
2022-10-03T22:48:28.610Z,36.36
2022-10-03T22:50:52.163Z,36.94
2022-10-03T22:51:57.114Z,36.27
2022-10-03T22:54:17.148Z,37.69
2022-10-03T22:55:23.604Z,36.00
2022-10-03T22:57:46.292Z,37.74
2022-10-03T22:58:50.212Z,35.83
2022-10-03T23:00:03.198Z,37.47
2022-10-03T23:02:20.468Z,35.59
2022-10-03T23:03:27.622Z,36.90
2022-10-03T23:04:47.004Z,36.02
2022-10-03T23:06:10.426Z,34.43
2022-10-03T23:10:12.749Z,36.31
2022-10-03T23:12:43.290Z,34.79
2022-10-03T23:13:49.864Z,34.10
2022-10-03T23:16:10.561Z,35.56
2022-10-03T23:17:20.627Z,34.50
2022-10-03T23:18:33.250Z,35.62
2022-10-03T23:21:11.324Z,37.02
2022-10-03T23:23:48.459Z,35.93
2022-10-03T23:26:27.639Z,35.39
2022-10-03T23:27:49.749Z,36.47
2022-10-03T23:30:20.495Z,34.36
2022-10-03T23:31:49.488Z,35.74
2022-10-03T23:34:07.745Z,33.72
2022-10-03T23:36:31.905Z,35.06
2022-10-03T23:37:40.850Z,34.59
2022-10-03T23:40:02.411Z,35.81
2022-10-03T23:42:43.814Z,34.82
2022-10-03T23:45:14.529Z,35.20
2022-10-03T23:46:24.289Z,33.52
2022-10-03T23:47:31.437Z,32.43
2022-10-03T23:49:57.053Z,31.41
2022-10-03T23:52:24.899Z,31.55
2022-10-03T23:54:51.408Z,32.52
2022-10-03T23:55:56.051Z,31.54
2022-10-03T23:59:38.913Z,31.83
